Aeroporto :
LOGIN :

Iscrizione | Disclaimer

   EN    FR    IT 

 










Sommario :    VFR   VFR Marginale   IFR   IFR Intensivo   IFR Molto Intensivo
Visibilità : 
Base nubi : 
>= 8 km
>= 3000ft
5 / 8 km
1000 / 3000 ft
1500m / 5 km
500 / 1000 ft
800 / 1500m
200 / 500 ft
< 800m
< 200 ft
Simboli :   Temporali  Nebbia  Neve Forte  Precipitazioni Forti  Vento > 20 kt
SIGMETs :   Varie  Temporali  Ghiacco  Turbolenza  Onda orograficha  Ceneri Vulcaniche






- Altitudine del aeroporto : 26 ft
- Codice IATA : BIA


LFKB - Bastia

ULTIMO METAR :
  • 140600Z AUTO 23009KT 9999 BKN052 10/03 Q1005 NOSIG

METARs OBSOLETI :
  • 140530Z AUTO 22007KT 9999 BKN054 10/04 Q1005 NOSIG
  • 140500Z AUTO 22006KT 9999 BKN050 10/04 Q1005 NOSIG
  • 140430Z AUTO 22006KT 9999 SCT050 09/05 Q1005 NOSIG
  • 140400Z AUTO 22004KT 9999 SCT052 09/04 Q1005 NOSIG
  • 140330Z AUTO 22005KT 9999 BKN052 09/05 Q1005 NOSIG

TAF TAF LFKB
Valido dal 14 a 03 ore il 15 a 03 ore UTC


140200Z 1403/1503 22005KT 9999 BKN040 TX17/1415Z TN09/1403Z
BECMG 1414/1418 15012G22KT BKN035 FEW040CB
TEMPO 1418/1503 SHRA
ATIS : +33 4 95 59 19 40



MetMap, La meteo Aeronautica in un colpo d'occhio ! - Copyright ORBIFLY Dicembre 2007 - Disclaimer

ORBIFLY MET'MAP TEAM :

Programmazione e sviluppo : Alexandra Zaïnal
Concezione e sviluppo : Baudouin d'Aumeries
Co-Programmazione e sviluppo : Marc-Olivier Méhu
Supporto tecnico e logistico : Manuel Goepfert
Aiuto per la traduzione : Arnaldo La Scala

Contatto : metmap@orbifly.com




FONTI E CREDITI :

   NOAA